createdAt,value
2023-04-01T00:00:39.247Z,15.68
2023-04-01T00:03:09.955Z,15.41
2023-04-01T00:05:42.535Z,15.71
2023-04-01T00:08:09.824Z,15.78
2023-04-01T00:10:58.985Z,15.41
2023-04-01T00:13:28.384Z,15.55
2023-04-01T00:15:56.716Z,15.68
2023-04-01T00:18:33.294Z,15.51
2023-04-01T00:21:02.640Z,14.95
2023-04-01T00:23:29.298Z,15.43
2023-04-01T00:25:56.534Z,14.91
2023-04-01T00:28:33.071Z,15.45
2023-04-01T00:31:00.020Z,15.43
2023-04-01T00:33:26.694Z,15.38
2023-04-01T00:35:53.359Z,15.25
2023-04-01T00:38:25.644Z,15.31
2023-04-01T00:40:59.372Z,14.77
2023-04-01T00:43:27.115Z,14.27
2023-04-01T00:45:53.765Z,15.31
2023-04-01T00:48:35.125Z,15.34
2023-04-01T00:51:12.590Z,14.98
2023-04-01T00:53:42.920Z,15.15
2023-04-01T00:56:35.171Z,15.27
2023-04-01T00:59:12.071Z,15.21
2023-04-01T01:01:39.081Z,15.11
2023-04-01T01:07:26.222Z,15.25
2023-04-01T01:10:00.305Z,14.91
2023-04-01T01:12:40.253Z,15.05
2023-04-01T01:15:39.544Z,14.58
2023-04-01T01:18:11.345Z,14.95
2023-04-01T01:21:02.409Z,14.96
2023-04-01T01:24:06.072Z,14.59
2023-04-01T01:27:07.310Z,14.90
2023-04-01T01:29:57.715Z,14.51
2023-04-01T01:32:52.613Z,14.95
2023-04-01T01:35:32.177Z,14.69
2023-04-01T01:38:03.457Z,14.90
2023-04-01T01:40:32.997Z,14.72
2023-04-01T01:43:12.670Z,13.99
2023-04-01T01:45:49.754Z,14.81
2023-04-01T01:48:18.131Z,14.85
2023-04-01T01:50:47.026Z,14.66
2023-04-01T01:53:22.938Z,14.67
2023-04-01T01:55:49.824Z,14.54
2023-04-01T01:58:44.344Z,14.73
2023-04-01T02:01:17.338Z,14.31
2023-04-01T02:03:51.709Z,14.41
2023-04-01T02:06:26.385Z,14.15
2023-04-01T02:09:02.354Z,14.49
2023-04-01T02:11:45.231Z,14.28
2023-04-01T02:14:29.986Z,14.38
2023-04-01T02:17:12.214Z,14.45
2023-04-01T02:19:58.734Z,13.77
2023-04-01T02:22:35.478Z,14.47
2023-04-01T02:25:21.861Z,14.29
2023-04-01T02:27:59.356Z,14.32
2023-04-01T02:30:30.260Z,14.20
2023-04-01T02:33:03.550Z,14.20
2023-04-01T02:35:40.616Z,14.41
2023-04-01T02:38:08.047Z,13.81
2023-04-01T02:40:47.786Z,14.41
2023-04-01T02:43:15.790Z,14.41
2023-04-01T02:45:42.587Z,14.29
2023-04-01T02:48:15.274Z,14.10
2023-04-01T02:51:02.680Z,14.21
2023-04-01T02:53:38.036Z,14.16
2023-04-01T02:56:07.605Z,13.80
2023-04-01T02:58:37.420Z,14.43
2023-04-01T03:01:05.157Z,14.46
2023-04-01T03:03:32.441Z,14.44
2023-04-01T03:06:01.285Z,14.50
2023-04-01T03:08:28.131Z,14.42
2023-04-01T03:10:54.846Z,14.18
2023-04-01T03:13:24.121Z,14.13
2023-04-01T03:15:50.850Z,13.75
2023-04-01T03:18:20.637Z,14.04
2023-04-01T03:21:00.729Z,13.29
2023-04-01T03:23:28.505Z,13.51
2023-04-01T03:26:06.217Z,13.43
2023-04-01T03:28:33.007Z,14.16
2023-04-01T03:31:00.143Z,13.91
2023-04-01T03:33:38.021Z,14.03
2023-04-01T03:36:23.870Z,13.90
2023-04-01T03:38:51.094Z,13.81
2023-04-01T03:41:18.709Z,13.45
2023-04-01T03:43:45.842Z,13.78
2023-04-01T03:46:15.210Z,13.31
2023-04-01T03:48:42.618Z,13.41
2023-04-01T03:51:09.853Z,13.15
2023-04-01T03:53:40.379Z,12.93
2023-04-01T03:56:08.356Z,13.51
2023-04-01T03:58:36.055Z,13.21
2023-04-01T04:01:15.749Z,12.99
2023-04-01T04:03:42.770Z,13.40
2023-04-01T04:06:12.849Z,13.62
2023-04-01T04:08:48.588Z,13.60
2023-04-01T04:11:15.694Z,13.59
2023-04-01T04:13:42.987Z,13.59
2023-04-01T04:16:13.077Z,13.52
2023-04-01T04:18:39.841Z,13.23
2023-04-01T04:21:06.762Z,13.45
2023-04-01T04:23:39.467Z,13.46
2023-04-01T04:26:11.026Z,13.45
2023-04-01T04:28:37.944Z,13.41
2023-04-01T04:31:17.037Z,13.39
2023-04-01T04:33:46.464Z,13.37
2023-04-01T04:36:22.180Z,13.30
2023-04-01T04:38:56.779Z,13.46
2023-04-01T04:41:24.915Z,13.18
2023-04-01T04:43:56.555Z,13.23
2023-04-01T04:46:25.068Z,13.43
2023-04-01T04:48:55.019Z,13.40
2023-04-01T04:51:22.374Z,13.31
2023-04-01T04:53:51.490Z,13.17
2023-04-01T04:56:21.435Z,13.03
2023-04-01T04:58:48.421Z,12.74
2023-04-01T05:01:21.665Z,13.28
2023-04-01T05:03:49.160Z,13.24
2023-04-01T05:06:17.744Z,13.16
2023-04-01T05:08:53.421Z,12.79
2023-04-01T05:11:28.267Z,13.07
2023-04-01T05:13:56.745Z,12.87
2023-04-01T05:16:26.462Z,13.12
2023-04-01T05:18:53.152Z,12.59
2023-04-01T05:21:19.801Z,12.89
2023-04-01T05:23:48.716Z,12.97
2023-04-01T05:26:18.313Z,12.90
2023-04-01T05:28:46.821Z,12.93
2023-04-01T05:31:15.784Z,12.93
2023-04-01T05:33:51.799Z,12.39
2023-04-01T05:36:18.959Z,12.42
2023-04-01T05:38:47.109Z,12.64
2023-04-01T05:41:21.160Z,12.04
2023-04-01T05:43:52.423Z,13.22
2023-04-01T05:46:19.660Z,13.15
2023-04-01T05:48:47.019Z,13.09
2023-04-01T05:51:15.766Z,11.98
2023-04-01T05:53:43.158Z,12.93
2023-04-01T05:56:10.810Z,13.24
2023-04-01T05:58:39.300Z,13.10
2023-04-01T06:01:16.489Z,13.29
2023-04-01T06:03:43.927Z,12.68
2023-04-01T06:06:28.329Z,12.75
2023-04-01T06:09:03.308Z,12.36
2023-04-01T06:11:45.866Z,13.50
2023-04-01T06:14:36.966Z,13.18
2023-04-01T06:17:46.781Z,13.51
2023-04-01T06:20:40.358Z,13.38
2023-04-01T06:23:33.319Z,13.27
2023-04-01T06:26:29.708Z,13.39
2023-04-01T06:29:22.126Z,13.89
2023-04-01T06:32:06.144Z,13.73
2023-04-01T06:34:49.507Z,13.89
2023-04-01T06:37:17.857Z,14.04
2023-04-01T06:40:14.746Z,13.94
2023-04-01T06:43:03.632Z,14.00
2023-04-01T06:45:59.490Z,13.99
2023-04-01T06:48:38.513Z,13.97
2023-04-01T06:51:25.256Z,13.97
2023-04-01T06:54:12.901Z,14.02
2023-04-01T06:56:47.868Z,13.99
2023-04-01T06:59:29.058Z,14.12
2023-04-01T07:02:10.910Z,14.16
2023-04-01T07:04:43.384Z,14.10
2023-04-01T07:07:25.689Z,13.76
2023-04-01T07:10:02.239Z,13.83
2023-04-01T07:12:40.021Z,14.36
2023-04-01T07:15:42.836Z,14.38
2023-04-01T07:18:20.438Z,14.40
2023-04-01T07:20:48.145Z,14.17
2023-04-01T07:23:33.302Z,14.42
2023-04-01T07:26:26.429Z,14.63
2023-04-01T07:28:54.719Z,14.53
2023-04-01T07:31:43.618Z,14.69
2023-04-01T07:34:25.696Z,14.89
2023-04-01T07:37:11.536Z,14.75
2023-04-01T07:40:01.206Z,13.65
2023-04-01T07:42:58.007Z,14.71
2023-04-01T07:45:35.763Z,14.74
2023-04-01T07:48:46.953Z,14.62
2023-04-01T07:51:30.461Z,14.75
2023-04-01T07:54:07.571Z,14.42
2023-04-01T07:57:07.360Z,14.77
2023-04-01T07:59:59.886Z,14.98
2023-04-01T08:03:02.097Z,14.85
2023-04-01T08:06:03.485Z,14.85
2023-04-01T08:08:56.305Z,14.90
2023-04-01T08:12:02.000Z,15.09
2023-04-01T08:15:02.321Z,15.18
2023-04-01T08:18:15.917Z,14.58
2023-04-01T08:20:53.920Z,14.40
2023-04-01T08:23:28.513Z,13.69
2023-04-01T08:26:07.415Z,14.90
2023-04-01T08:28:38.397Z,15.06
2023-04-01T08:31:27.760Z,15.06
2023-04-01T08:33:59.913Z,14.64
2023-04-01T08:36:45.621Z,15.15
2023-04-01T08:39:19.443Z,15.03
2023-04-01T08:41:54.822Z,15.06
2023-04-01T08:44:49.201Z,15.29
2023-04-01T08:47:54.367Z,15.34
2023-04-01T08:50:46.931Z,15.46
2023-04-01T08:53:20.804Z,15.44
2023-04-01T08:56:18.537Z,15.50
2023-04-01T08:58:52.871Z,15.17
2023-04-01T09:01:44.815Z,15.71
2023-04-01T09:04:36.633Z,15.48
2023-04-01T09:07:38.499Z,15.69
2023-04-01T09:10:23.794Z,15.43
2023-04-01T09:13:08.945Z,15.89
2023-04-01T09:15:55.056Z,16.08
2023-04-01T09:18:43.298Z,16.24
2023-04-01T09:21:16.449Z,16.19
2023-04-01T09:23:54.368Z,15.94
2023-04-01T09:26:59.706Z,15.95
2023-04-01T09:29:45.042Z,16.08
2023-04-01T09:32:49.505Z,16.70
2023-04-01T09:35:49.427Z,16.91
2023-04-01T09:38:42.393Z,17.17
2023-04-01T09:41:44.241Z,17.33
2023-04-01T09:44:48.105Z,17.58
2023-04-01T09:47:46.389Z,17.61
2023-04-01T09:50:21.224Z,17.91
2023-04-01T09:53:06.309Z,18.14
2023-04-01T09:56:15.230Z,18.34
2023-04-01T09:59:29.991Z,18.60
2023-04-01T10:02:24.789Z,18.68
2023-04-01T10:05:25.504Z,18.74
2023-04-01T10:08:07.658Z,18.80
2023-04-01T10:11:11.689Z,19.23
2023-04-01T10:14:12.547Z,19.48
2023-04-01T10:17:10.880Z,19.80
2023-04-01T10:20:10.270Z,19.85
2023-04-01T10:23:03.251Z,19.92
2023-04-01T10:25:59.301Z,19.96
2023-04-01T10:28:56.569Z,20.48
2023-04-01T10:32:03.649Z,20.65
2023-04-01T10:34:55.870Z,20.74
2023-04-01T10:37:33.863Z,20.84
2023-04-01T10:40:19.730Z,20.95
2023-04-01T10:43:10.885Z,20.91
2023-04-01T10:46:23.149Z,21.44
2023-04-01T10:49:14.777Z,21.65
2023-04-01T10:51:56.145Z,21.42
2023-04-01T10:54:25.822Z,21.94
2023-04-01T10:56:58.881Z,21.66
2023-04-01T11:00:10.287Z,22.19
2023-04-01T11:03:01.710Z,22.02
2023-04-01T11:06:13.185Z,22.48
2023-04-01T11:09:07.287Z,22.45
2023-04-01T11:11:55.374Z,22.92
2023-04-01T11:14:40.892Z,23.19
2023-04-01T11:17:48.262Z,23.23
2023-04-01T11:20:22.337Z,23.05
2023-04-01T11:23:18.817Z,23.51
2023-04-01T11:26:24.917Z,22.58
2023-04-01T11:29:30.041Z,23.83
2023-04-01T11:32:18.104Z,23.27
2023-04-01T11:35:28.462Z,23.70
2023-04-01T11:38:16.796Z,24.03
2023-04-01T11:41:26.321Z,24.18
2023-04-01T11:44:23.530Z,24.15
2023-04-01T11:47:14.695Z,23.64
2023-04-01T11:49:56.509Z,24.75
2023-04-01T11:52:50.613Z,24.92
2023-04-01T11:55:53.868Z,25.15
2023-04-01T11:58:53.494Z,25.36
2023-04-01T12:01:48.613Z,25.54
2023-04-01T12:04:46.723Z,25.89
2023-04-01T12:07:48.282Z,26.08
2023-04-01T12:10:48.795Z,26.23
2023-04-01T12:13:38.190Z,25.97
2023-04-01T12:16:51.663Z,26.42
2023-04-01T12:19:33.414Z,26.53
2023-04-01T12:22:28.274Z,26.60
2023-04-01T12:25:02.245Z,26.28
2023-04-01T12:28:03.710Z,25.73
2023-04-01T12:31:02.549Z,25.66
2023-04-01T12:33:29.112Z,24.72
2023-04-01T12:36:19.887Z,24.98
2023-04-01T12:39:15.477Z,24.15
2023-04-01T12:42:08.350Z,23.93
2023-04-01T12:44:52.585Z,24.24
2023-04-01T12:47:41.132Z,24.17
2023-04-01T12:50:46.269Z,23.84
2023-04-01T12:53:16.646Z,22.97
2023-04-01T12:55:45.644Z,23.38
2023-04-01T12:58:54.361Z,23.37
2023-04-01T13:01:43.219Z,23.09
2023-04-01T13:04:30.556Z,22.88
2023-04-01T13:07:03.386Z,22.76
2023-04-01T13:09:39.788Z,22.79
2023-04-01T13:12:15.876Z,22.87
2023-04-01T13:15:11.889Z,22.66
2023-04-01T13:17:51.747Z,22.26
2023-04-01T13:20:59.906Z,22.44
2023-04-01T13:23:32.512Z,22.51
2023-04-01T13:26:15.327Z,22.45
2023-04-01T13:28:46.558Z,22.05
2023-04-01T13:31:43.810Z,22.20
2023-04-01T13:34:37.929Z,22.12
2023-04-01T13:37:28.325Z,21.74
2023-04-01T13:40:32.105Z,21.92
2023-04-01T13:46:07.086Z,22.13
2023-04-01T13:48:56.454Z,22.09
2023-04-01T13:51:33.397Z,21.68
2023-04-01T13:54:31.707Z,22.16
2023-04-01T13:57:20.229Z,22.14
2023-04-01T14:00:15.753Z,22.06
2023-04-01T14:03:08.655Z,22.04
2023-04-01T14:06:11.584Z,21.86
2023-04-01T14:09:08.796Z,22.08
2023-04-01T14:11:39.657Z,21.94
2023-04-01T14:14:34.302Z,21.81
2023-04-01T14:17:37.146Z,21.50
2023-04-01T14:20:22.770Z,21.78
2023-04-01T14:23:23.015Z,21.67
2023-04-01T14:26:28.665Z,21.61
2023-04-01T14:29:08.589Z,21.55
2023-04-01T14:31:54.798Z,21.54
2023-04-01T14:34:57.738Z,21.27
2023-04-01T14:38:16.641Z,21.55
2023-04-01T14:40:55.446Z,21.54
2023-04-01T14:43:43.751Z,21.48
2023-04-01T14:46:41.212Z,21.42
2023-04-01T14:49:18.400Z,21.32
2023-04-01T14:51:49.319Z,20.89
2023-04-01T14:54:31.386Z,21.30
2023-04-01T14:57:45.489Z,21.36
2023-04-01T15:00:39.497Z,21.33
2023-04-01T15:03:29.411Z,21.24
2023-04-01T15:06:15.934Z,20.53
2023-04-01T15:09:16.048Z,21.24
2023-04-01T15:12:07.885Z,20.84
2023-04-01T15:14:56.304Z,21.17
2023-04-01T15:17:41.941Z,20.64
2023-04-01T15:20:27.325Z,21.18
2023-04-01T15:23:18.278Z,20.69
2023-04-01T15:26:34.156Z,21.13
2023-04-01T15:29:28.770Z,21.22
2023-04-01T15:32:14.138Z,20.80
2023-04-01T15:34:51.549Z,20.96
2023-04-01T15:37:39.690Z,21.00
2023-04-01T15:40:30.906Z,20.80
2023-04-01T15:43:19.051Z,20.33
2023-04-01T15:46:16.785Z,21.04
2023-04-01T15:49:11.312Z,20.75
2023-04-01T15:52:35.531Z,21.02
2023-04-01T15:55:18.791Z,20.97
2023-04-01T15:58:13.576Z,21.34
2023-04-01T16:01:00.827Z,20.99
2023-04-01T16:04:00.558Z,21.39
2023-04-01T16:07:03.745Z,21.44
2023-04-01T16:09:35.102Z,21.34
2023-04-01T16:12:16.227Z,21.30
2023-04-01T16:15:13.355Z,20.97
2023-04-01T16:18:05.882Z,20.95
2023-04-01T16:20:51.177Z,21.11
2023-04-01T16:23:56.001Z,21.18
2023-04-01T16:26:29.347Z,21.18
2023-04-01T16:29:27.604Z,21.06
2023-04-01T16:32:20.222Z,20.43
2023-04-01T16:35:19.721Z,20.84
2023-04-01T16:37:53.774Z,20.90
2023-04-01T16:40:51.316Z,20.96
2023-04-01T16:43:37.799Z,20.91
2023-04-01T16:46:27.902Z,20.59
2023-04-01T16:49:37.320Z,20.51
2023-04-01T16:52:15.577Z,20.16
2023-04-01T16:54:52.354Z,19.68
2023-04-01T16:57:26.171Z,19.87
2023-04-01T17:03:11.652Z,20.25
2023-04-01T17:06:09.901Z,19.80
2023-04-01T17:08:56.036Z,19.91
2023-04-01T17:11:42.767Z,19.75
2023-04-01T17:14:27.522Z,19.80
2023-04-01T17:17:04.244Z,19.71
2023-04-01T17:20:10.486Z,19.60
2023-04-01T17:22:55.815Z,19.38
2023-04-01T17:26:03.002Z,19.43
2023-04-01T17:29:07.738Z,19.31
2023-04-01T17:32:20.026Z,19.46
2023-04-01T17:35:17.576Z,19.47
2023-04-01T17:38:22.311Z,18.86
2023-04-01T17:41:04.335Z,19.07
2023-04-01T17:43:43.676Z,17.72
2023-04-01T17:47:01.003Z,18.78
2023-04-01T17:49:32.431Z,19.09
2023-04-01T17:52:33.399Z,18.72
2023-04-01T17:55:00.023Z,18.75
2023-04-01T18:01:17.479Z,18.73
2023-04-01T18:04:21.637Z,18.43
2023-04-01T18:07:21.817Z,18.40
2023-04-01T18:10:17.809Z,18.51
2023-04-01T18:13:19.740Z,17.91
2023-04-01T18:16:24.067Z,18.44
2023-04-01T18:19:06.832Z,18.18
2023-04-01T18:21:54.754Z,17.94
2023-04-01T18:24:43.207Z,18.15
2023-04-01T18:28:10.317Z,18.18
2023-04-01T18:30:46.274Z,17.96
2023-04-01T18:33:33.994Z,17.96
2023-04-01T18:36:36.000Z,18.00
2023-04-01T18:42:46.448Z,17.67
2023-04-01T18:45:50.204Z,17.59
2023-04-01T18:48:48.914Z,17.80
2023-04-01T18:51:47.682Z,16.51
2023-04-01T18:54:44.605Z,16.44
2023-04-01T19:00:46.053Z,17.34
2023-04-01T19:03:27.329Z,16.41
2023-04-01T19:06:01.383Z,17.12
2023-04-01T19:11:58.719Z,17.59
2023-04-01T19:15:07.665Z,17.41
2023-04-01T19:18:34.601Z,17.03
2023-04-01T19:21:44.796Z,17.54
2023-04-01T19:24:43.101Z,17.54
2023-04-01T19:27:37.729Z,17.55
2023-04-01T19:30:33.428Z,17.62
2023-04-01T19:34:07.568Z,16.98
2023-04-01T19:37:00.434Z,17.35
2023-04-01T19:39:46.530Z,17.46
2023-04-01T19:42:19.541Z,16.10
2023-04-01T19:45:07.658Z,17.34
2023-04-01T19:48:13.858Z,17.54
2023-04-01T19:50:57.467Z,16.93
2023-04-01T19:54:24.289Z,16.56
2023-04-01T19:57:35.504Z,17.11
2023-04-01T20:00:18.129Z,17.22
2023-04-01T20:06:50.797Z,16.34
2023-04-01T20:10:05.012Z,17.05
2023-04-01T20:13:04.238Z,17.08
2023-04-01T20:15:46.260Z,17.15
2023-04-01T20:18:47.629Z,16.68
2023-04-01T20:21:34.597Z,16.94
2023-04-01T20:24:23.507Z,16.97
2023-04-01T20:27:00.234Z,16.53
2023-04-01T20:30:08.879Z,16.99
2023-04-01T20:32:41.220Z,16.97
2023-04-01T20:37:59.112Z,16.96
2023-04-01T20:40:54.689Z,16.84
2023-04-01T20:43:34.921Z,16.79
2023-04-01T20:46:09.425Z,16.73
2023-04-01T20:48:51.165Z,16.65
2023-04-01T20:51:27.588Z,16.60
2023-04-01T20:54:18.837Z,16.75
2023-04-01T20:57:01.798Z,16.30
2023-04-01T20:59:58.092Z,16.83
2023-04-01T21:02:44.088Z,16.82
2023-04-01T21:05:47.357Z,16.97
2023-04-01T21:08:43.500Z,16.72
2023-04-01T21:11:39.769Z,16.58
2023-04-01T21:14:36.691Z,16.68
2023-04-01T21:17:23.609Z,15.78
2023-04-01T21:20:28.475Z,16.67
2023-04-01T21:23:02.451Z,16.34
2023-04-01T21:25:54.935Z,16.79
2023-04-01T21:29:09.744Z,16.66
2023-04-01T21:32:27.855Z,16.47
2023-04-01T21:35:12.810Z,16.03
2023-04-01T21:37:48.714Z,16.37
2023-04-01T21:40:43.357Z,16.43
2023-04-01T21:43:25.724Z,16.39
2023-04-01T21:45:58.672Z,16.50
2023-04-01T21:48:34.144Z,16.23
2023-04-01T21:51:40.771Z,16.33
2023-04-01T21:54:44.666Z,16.53
2023-04-01T21:57:54.543Z,16.58
2023-04-01T22:00:37.621Z,16.63
2023-04-01T22:03:44.273Z,16.32
2023-04-01T22:06:23.364Z,15.99
2023-04-01T22:09:14.572Z,16.28
2023-04-01T22:12:11.131Z,16.18
2023-04-01T22:17:53.168Z,16.18
2023-04-01T22:20:44.520Z,15.95
2023-04-01T22:23:52.985Z,15.56
2023-04-01T22:26:33.284Z,16.35
2023-04-01T22:29:26.159Z,16.25
2023-04-01T22:32:58.716Z,16.26
2023-04-01T22:35:39.635Z,15.81
2023-04-01T22:38:19.623Z,16.12
2023-04-01T22:41:01.620Z,16.16
2023-04-01T22:43:39.516Z,16.18
2023-04-01T22:46:15.257Z,16.26
2023-04-01T22:48:55.998Z,16.31
2023-04-01T22:51:41.590Z,15.22
2023-04-01T22:54:44.063Z,16.36
2023-04-01T22:57:39.571Z,16.17
2023-04-01T23:00:29.228Z,16.12
2023-04-01T23:03:46.668Z,16.23
2023-04-01T23:06:30.506Z,16.18
2023-04-01T23:09:17.768Z,16.22
2023-04-01T23:12:06.295Z,15.34
2023-04-01T23:14:41.770Z,16.01
2023-04-01T23:17:23.848Z,16.10
2023-04-01T23:20:03.394Z,16.16
2023-04-01T23:23:00.519Z,16.00
2023-04-01T23:25:57.538Z,16.03
2023-04-01T23:28:48.893Z,16.14
2023-04-01T23:31:35.792Z,15.50
2023-04-01T23:34:28.500Z,15.73
2023-04-01T23:37:00.594Z,16.22
2023-04-01T23:39:40.102Z,15.83
2023-04-01T23:42:24.374Z,16.04
2023-04-01T23:44:56.580Z,14.81
2023-04-01T23:47:39.112Z,15.51
2023-04-01T23:50:13.084Z,15.99
2023-04-01T23:53:25.398Z,15.86
2023-04-01T23:55:56.707Z,15.84
2023-04-01T23:58:29.280Z,15.81
